KHYI

San Marcos Regional Airport

Austin, Texas, USA
METAR KHYI 192256Z 16008G17KT 10SM FEW080 37/18 A2982 RMK AO2 SLP084 T03670178 $
Observed Flight Rules
Aug-19 @ 22:56 UTC (11 minutes ago) Visual Flight Rules
Wind Visibility Clouds
160° at 8 knots
 Gusting to 17 knots
10 miles
  • Few at 8,000' AGL
Temperatures Readings
Current 37°C / 99°F
Dewpoint 18°C / 64°F
Humidity 33%
Altimeter 29.82" Hg
Pressure 1008.4 hPa
Elevation 182
METAR KHYI 192256Z 16008G17KT 10SM FEW080 37/18 A2982 RMK AO2 SLP084 T03670178 $
Observed Flight Rules
Aug-19 @ 22:56 UTC
(11 minutes ago)
VFR
Wind Visibility
160° at 8 knots
 Gusting to 17 knots
10 miles
Clouds
  • Few at 8,000' AGL
Temperature Dewpoint
37°C / 99°F 18°C / 64°F
Humidity Altimeter Pressure
33% 29.82" Hg 1008.4 hPa